createdAt,value
2017-01-17T00:00:41.565Z,-1.76
2017-01-17T00:01:55.408Z,-1.84
2017-01-17T00:03:08.855Z,-1.86
2017-01-17T00:04:22.324Z,-1.89
2017-01-17T00:05:35.783Z,-1.76
2017-01-17T00:06:50.618Z,-1.78
2017-01-17T00:08:04.532Z,-1.78
2017-01-17T00:09:17.969Z,-1.78
2017-01-17T00:10:33.593Z,-1.86
2017-01-17T00:11:47.097Z,-1.86
2017-01-17T00:13:00.643Z,-1.75
2017-01-17T00:14:14.384Z,-1.72
2017-01-17T00:15:27.834Z,-1.82
2017-01-17T00:16:41.263Z,-1.76
2017-01-17T00:17:54.799Z,-1.72
2017-01-17T00:19:08.227Z,-1.74
2017-01-17T00:20:21.963Z,-1.74
2017-01-17T00:21:35.365Z,-1.74
2017-01-17T00:22:49.236Z,-1.74
2017-01-17T00:24:03.015Z,-1.76
2017-01-17T00:25:16.655Z,-1.74
2017-01-17T00:26:30.411Z,-1.76
2017-01-17T00:27:43.853Z,-1.74
2017-01-17T00:28:57.812Z,-1.78
2017-01-17T00:30:11.240Z,-1.64
2017-01-17T00:31:24.682Z,-1.72
2017-01-17T00:32:38.466Z,-1.75
2017-01-17T00:33:52.021Z,-1.64
2017-01-17T00:35:06.073Z,-1.71
2017-01-17T00:36:19.550Z,-1.75
2017-01-17T00:37:32.994Z,-1.68
2017-01-17T00:38:46.758Z,-1.72
2017-01-17T00:40:00.270Z,-1.74
2017-01-17T00:41:13.744Z,-1.64
2017-01-17T00:42:27.199Z,-1.53
2017-01-17T00:43:40.627Z,-1.61
2017-01-17T00:45:24.117Z,-1.57
2017-01-17T00:46:37.602Z,-1.5
2017-01-17T00:47:51.024Z,-1.42
2017-01-17T00:49:04.840Z,-1.3
2017-01-17T00:50:18.615Z,-1.35
2017-01-17T00:51:32.122Z,-1.32
2017-01-17T00:52:45.552Z,-1.43
2017-01-17T00:53:59.020Z,-1.43
2017-01-17T00:55:12.487Z,-1.3
2017-01-17T00:56:26.355Z,-1.42
2017-01-17T00:57:40.001Z,-1.39
2017-01-17T00:58:53.449Z,-1.46
2017-01-17T01:00:06.862Z,-1.35
2017-01-17T01:01:20.389Z,-1.42
2017-01-17T01:02:34.529Z,-1.4
2017-01-17T01:03:47.966Z,-1.38
2017-01-17T01:05:01.418Z,-1.43
2017-01-17T01:06:14.876Z,-1.36
2017-01-17T01:07:28.829Z,-1.48
2017-01-17T01:08:42.561Z,-1.39
2017-01-17T01:09:55.996Z,-1.46
2017-01-17T01:11:15.675Z,-1.42
2017-01-17T01:12:29.239Z,-1.56
2017-01-17T01:13:42.722Z,-1.4
2017-01-17T01:14:56.468Z,-1.38
2017-01-17T01:16:09.938Z,-1.29
2017-01-17T01:17:23.460Z,-1.38
2017-01-17T01:18:36.892Z,-1.38
2017-01-17T01:19:50.310Z,-1.36
2017-01-17T01:21:04.047Z,-1.36
2017-01-17T01:22:17.590Z,-1.46
2017-01-17T01:23:31.459Z,-1.35
2017-01-17T01:24:44.923Z,-1.5
2017-01-17T01:25:58.347Z,-1.35
2017-01-17T01:27:14.292Z,-1.3
2017-01-17T01:28:27.777Z,-1.3
2017-01-17T01:29:41.622Z,-1.32
2017-01-17T01:30:55.068Z,-1.24
2017-01-17T01:32:08.454Z,-1.32
2017-01-17T01:33:22.682Z,-1.25
2017-01-17T01:34:36.134Z,-1.29
2017-01-17T01:35:49.611Z,-1.3
2017-01-17T01:37:03.031Z,-1.38
2017-01-17T01:38:16.543Z,-1.27
2017-01-17T01:39:30.267Z,-1.22
2017-01-17T01:40:43.715Z,-1.25
2017-01-17T01:41:57.153Z,-1.15
2017-01-17T01:43:10.995Z,-1.15
2017-01-17T01:44:24.538Z,-1.19
2017-01-17T01:45:38.301Z,-1.12
2017-01-17T01:46:51.758Z,-1.07
2017-01-17T01:48:05.691Z,-1.09
2017-01-17T01:49:19.760Z,-1.15
2017-01-17T01:50:33.182Z,-1.07
2017-01-17T01:51:46.899Z,-1.19
2017-01-17T01:53:00.324Z,-1.18
2017-01-17T01:54:13.825Z,-1.15
2017-01-17T01:55:27.263Z,-1.12
2017-01-17T01:56:40.844Z,-1.09
2017-01-17T01:57:54.569Z,-1.17
2017-01-17T01:59:08.031Z,-1.12
2017-01-17T02:00:21.524Z,-1.19
2017-01-17T02:01:34.989Z,-1.18
2017-01-17T02:02:48.461Z,-1.18
2017-01-17T02:04:02.209Z,-1.19
2017-01-17T02:05:15.743Z,-1.14
2017-01-17T02:06:29.201Z,-1.17
2017-01-17T02:07:42.591Z,-1.19
2017-01-17T02:08:56.007Z,-1.12
2017-01-17T02:10:09.907Z,-1.18
2017-01-17T02:11:23.342Z,-1.21
2017-01-17T02:12:36.792Z,-1.06
2017-01-17T02:13:50.235Z,-1.17
2017-01-17T02:15:03.710Z,-1.17
2017-01-17T02:16:17.585Z,-1.15
2017-01-17T02:17:31.041Z,-1.11
2017-01-17T02:18:44.464Z,-1.11
2017-01-17T02:19:57.923Z,-1.19
2017-01-17T02:21:11.471Z,-1.17
2017-01-17T02:22:25.238Z,-1.18
2017-01-17T02:23:38.687Z,-1.14
2017-01-17T02:24:52.186Z,-1.15
2017-01-17T02:26:05.735Z,-1.11
2017-01-17T02:27:19.187Z,-1.06
2017-01-17T02:28:32.866Z,-0.99
2017-01-17T02:29:46.278Z,-0.99
2017-01-17T02:30:59.708Z,-0.97
2017-01-17T02:32:14.431Z,-0.91
2017-01-17T02:33:27.902Z,-0.91
2017-01-17T02:34:41.610Z,-0.82
2017-01-17T02:35:55.079Z,-0.87
2017-01-17T02:37:08.562Z,-0.81
2017-01-17T02:38:21.983Z,-0.84
2017-01-17T02:39:35.388Z,-0.74
2017-01-17T02:40:49.080Z,-0.66
2017-01-17T02:42:02.613Z,-0.75
2017-01-17T02:43:18.188Z,-0.8
2017-01-17T02:44:31.630Z,-0.8
2017-01-17T02:45:45.077Z,-0.8
2017-01-17T02:46:58.801Z,-0.87
2017-01-17T02:48:12.756Z,-0.82
2017-01-17T02:49:26.604Z,-0.7
2017-01-17T02:50:40.080Z,-0.77
2017-01-17T02:51:53.541Z,-0.74
2017-01-17T02:53:07.360Z,-0.67
2017-01-17T02:54:20.773Z,-0.72
2017-01-17T02:55:34.390Z,-0.67
2017-01-17T02:56:48.264Z,-0.72
2017-01-17T02:58:01.809Z,-0.7
2017-01-17T02:59:34.692Z,-0.75
2017-01-17T03:00:48.134Z,-0.67
2017-01-17T03:02:01.553Z,-0.63
2017-01-17T03:03:15.129Z,-0.54
2017-01-17T03:04:28.866Z,-0.57
2017-01-17T03:05:42.285Z,-0.49
2017-01-17T03:06:55.760Z,-0.45
2017-01-17T03:08:09.298Z,-0.44
2017-01-17T03:09:22.723Z,-0.45
2017-01-17T03:10:36.420Z,-0.45
2017-01-17T03:11:49.819Z,-0.42
2017-01-17T03:13:03.251Z,-0.53
2017-01-17T03:14:16.771Z,-0.36
2017-01-17T03:15:30.214Z,-0.42
2017-01-17T03:16:43.951Z,-0.44
2017-01-17T03:17:57.407Z,-0.39
2017-01-17T03:19:10.954Z,-0.56
2017-01-17T03:20:24.406Z,-0.53
2017-01-17T03:21:37.825Z,-0.49
2017-01-17T03:22:51.964Z,-0.49
2017-01-17T03:24:05.465Z,-0.46
2017-01-17T03:25:18.875Z,-0.46
2017-01-17T03:26:32.314Z,-0.51
2017-01-17T03:27:45.718Z,-0.51
2017-01-17T03:28:59.445Z,-0.39
2017-01-17T03:30:14.140Z,-0.48
2017-01-17T03:31:27.982Z,-0.44
2017-01-17T03:32:41.585Z,-0.54
2017-01-17T03:33:55.070Z,-0.38
2017-01-17T03:35:08.918Z,-0.35
2017-01-17T03:36:22.760Z,-0.33
2017-01-17T03:37:42.442Z,-0.33
2017-01-17T03:38:56.261Z,-0.38
2017-01-17T03:40:09.760Z,-0.31
2017-01-17T03:41:23.521Z,-0.3
2017-01-17T03:42:36.957Z,-0.36
2017-01-17T03:43:50.360Z,-0.31
2017-01-17T03:45:04.688Z,-0.35
2017-01-17T03:46:18.069Z,-0.28
2017-01-17T03:47:31.736Z,-0.39
2017-01-17T03:48:45.175Z,-0.33
2017-01-17T03:49:58.573Z,-0.33
2017-01-17T03:51:12.142Z,-0.35
2017-01-17T03:52:25.599Z,-0.3
2017-01-17T03:53:39.286Z,-0.31
2017-01-17T03:54:52.767Z,-0.38
2017-01-17T03:56:07.516Z,-0.24
2017-01-17T03:57:20.961Z,-0.3
2017-01-17T03:58:34.483Z,-0.33
2017-01-17T03:59:50.410Z,-0.33
2017-01-17T04:01:03.989Z,-0.39
2017-01-17T04:02:17.402Z,-0.39
2017-01-17T04:03:31.302Z,-0.28
2017-01-17T04:04:44.698Z,-0.35
2017-01-17T04:05:58.439Z,-0.33
2017-01-17T04:07:12.001Z,-0.3
2017-01-17T04:08:25.486Z,-0.35
2017-01-17T04:09:39.720Z,-0.36
2017-01-17T04:10:53.166Z,-0.48
2017-01-17T04:12:06.977Z,-0.42
2017-01-17T04:13:20.437Z,-0.33
2017-01-17T04:14:33.866Z,-0.35
2017-01-17T04:15:47.322Z,-0.31
2017-01-17T04:17:01.301Z,-0.3
2017-01-17T04:18:15.176Z,-0.3
2017-01-17T04:19:28.585Z,-0.39
2017-01-17T04:20:42.030Z,-0.51
2017-01-17T04:21:55.459Z,-0.39
2017-01-17T04:23:09.026Z,-0.39
2017-01-17T04:24:22.837Z,-0.35
2017-01-17T04:25:36.322Z,-0.35
2017-01-17T04:26:49.746Z,-0.31
2017-01-17T04:28:03.265Z,-0.36
2017-01-17T04:29:17.174Z,-0.24
2017-01-17T04:30:30.893Z,-0.21
2017-01-17T04:31:44.478Z,-0.35
2017-01-17T04:33:04.347Z,-0.24
2017-01-17T04:34:18.200Z,-0.23
2017-01-17T04:35:31.613Z,-0.27
2017-01-17T04:36:51.640Z,-0.24
2017-01-17T04:38:05.235Z,-0.21
2017-01-17T04:39:18.772Z,-0.2
2017-01-17T04:40:32.192Z,-0.23
2017-01-17T04:41:45.623Z,-0.27
2017-01-17T04:42:59.374Z,-0.21
2017-01-17T04:44:12.836Z,-0.18
2017-01-17T04:45:26.280Z,-0.09
2017-01-17T04:46:39.724Z,-0.12
2017-01-17T04:47:53.146Z,-0.06
2017-01-17T04:49:07.223Z,-0.17
2017-01-17T04:50:20.783Z,-0.09
2017-01-17T04:51:34.247Z,-0.09
2017-01-17T04:52:47.683Z,-0.12
2017-01-17T04:54:01.656Z,-0.09
2017-01-17T04:55:15.383Z,-0.07
2017-01-17T04:56:28.833Z,-0.12
2017-01-17T04:57:42.336Z,-0.09
2017-01-17T04:58:55.728Z,-0.12
2017-01-17T05:00:10.442Z,-0.05
2017-01-17T05:01:24.573Z,-0.09
2017-01-17T05:02:38.012Z,0
2017-01-17T05:03:51.451Z,-0.03
2017-01-17T05:05:05.459Z,-0.07
2017-01-17T05:06:18.890Z,-0.03
2017-01-17T05:07:32.598Z,0.01
2017-01-17T05:08:46.054Z,-0.02
2017-01-17T05:10:00.841Z,-0.09
2017-01-17T05:11:14.265Z,-0.02
2017-01-17T05:12:27.694Z,-0.07
2017-01-17T05:13:41.487Z,-0.12
2017-01-17T05:14:54.979Z,-0.09
2017-01-17T05:16:11.905Z,-0.12
2017-01-17T05:17:25.357Z,-0.07
2017-01-17T05:18:38.803Z,0.01
2017-01-17T05:19:52.510Z,-0.06
2017-01-17T05:21:06.075Z,0
2017-01-17T05:22:20.091Z,-0.06
2017-01-17T05:23:33.530Z,-0.12
2017-01-17T05:24:46.946Z,-0.06
2017-01-17T05:26:01.133Z,0.26
2017-01-17T05:27:14.764Z,0.94
2017-01-17T05:28:28.220Z,1
2017-01-17T05:29:41.676Z,1.18
2017-01-17T05:30:55.093Z,1.32
2017-01-17T05:32:09.334Z,1.4
2017-01-17T05:33:22.764Z,1.07
2017-01-17T05:34:36.187Z,0.74
2017-01-17T05:35:49.623Z,0.51
2017-01-17T05:37:03.128Z,0.59
2017-01-17T05:38:16.869Z,0.48
2017-01-17T05:39:30.286Z,0.59
2017-01-17T05:40:43.732Z,0.4
2017-01-17T05:41:57.453Z,0.47
2017-01-17T05:43:11.288Z,0.39
2017-01-17T05:44:25.009Z,0.31
2017-01-17T05:45:38.854Z,0.24
2017-01-17T05:46:52.292Z,0.3
2017-01-17T05:48:07.036Z,0.11
2017-01-17T05:49:20.474Z,0.2
2017-01-17T05:50:34.197Z,0.16
2017-01-17T05:51:48.446Z,0.23
2017-01-17T05:53:03.186Z,0.2
2017-01-17T05:54:16.596Z,0.05
2017-01-17T05:55:30.866Z,0.01
2017-01-17T05:56:44.627Z,0.05
2017-01-17T05:57:58.174Z,0.01
2017-01-17T05:59:11.770Z,0.12
2017-01-17T06:00:25.595Z,0.18
2017-01-17T06:01:39.101Z,0.3
2017-01-17T06:02:53.226Z,0.18
2017-01-17T06:04:07.203Z,0.31
2017-01-17T06:05:20.746Z,0.16
2017-01-17T06:06:34.173Z,0.18
2017-01-17T06:07:48.386Z,0.06
2017-01-17T06:09:03.402Z,0.11
2017-01-17T06:10:16.915Z,0.09
2017-01-17T06:11:30.459Z,0.05
2017-01-17T06:12:43.946Z,0.01
2017-01-17T06:13:57.500Z,0.05
2017-01-17T06:15:11.306Z,0.15
2017-01-17T06:16:24.777Z,0.19
2017-01-17T06:17:38.261Z,0.12
2017-01-17T06:18:51.944Z,0.31
2017-01-17T06:20:05.538Z,0.11
2017-01-17T06:21:20.350Z,0.16
2017-01-17T06:22:33.832Z,0.29
2017-01-17T06:23:47.262Z,0.26
2017-01-17T06:25:00.897Z,0.15
2017-01-17T06:26:14.529Z,0.16
2017-01-17T06:27:28.292Z,0.23
2017-01-17T06:28:41.790Z,0.26
2017-01-17T06:29:55.419Z,0.23
2017-01-17T06:31:08.947Z,0.11
2017-01-17T06:32:24.553Z,0.15
2017-01-17T06:33:38.480Z,0.19
2017-01-17T06:34:52.005Z,0.11
2017-01-17T06:36:05.429Z,0.34
2017-01-17T06:37:18.875Z,0.16
2017-01-17T06:38:32.381Z,0.19
2017-01-17T06:39:46.140Z,0.16
2017-01-17T06:41:00.906Z,0.15
2017-01-17T06:42:14.467Z,0.24
2017-01-17T06:43:28.032Z,0.26
2017-01-17T06:44:41.992Z,0.29
2017-01-17T06:45:57.229Z,0.15
2017-01-17T06:47:10.811Z,0.09
2017-01-17T06:48:24.322Z,0.16
2017-01-17T06:49:37.743Z,0.12
2017-01-17T06:50:51.370Z,0.13
2017-01-17T06:52:05.797Z,0.12
2017-01-17T06:53:19.344Z,0.16
2017-01-17T06:54:32.784Z,0.2
2017-01-17T06:55:46.201Z,0.11
2017-01-17T06:56:59.753Z,0.15
2017-01-17T06:58:13.883Z,0.31
2017-01-17T06:59:28.161Z,0.23
2017-01-17T07:00:42.014Z,0.26
2017-01-17T07:01:55.548Z,0.26
2017-01-17T07:03:08.957Z,0.23
2017-01-17T07:04:22.708Z,0.3
2017-01-17T07:05:36.131Z,0.34
2017-01-17T07:06:49.655Z,0.29
2017-01-17T07:08:03.526Z,0.2
2017-01-17T07:09:17.020Z,0.26
2017-01-17T07:10:35.732Z,0.19
2017-01-17T07:11:49.683Z,0.19
2017-01-17T07:13:03.131Z,0.27
2017-01-17T07:14:16.589Z,0.33
2017-01-17T07:15:30.058Z,0.29
2017-01-17T07:16:44.204Z,0.27
2017-01-17T07:17:57.750Z,0.24
2017-01-17T07:19:11.634Z,0.26
2017-01-17T07:20:25.084Z,0.23
2017-01-17T07:21:38.543Z,0.29
2017-01-17T07:22:52.603Z,0.29
2017-01-17T07:24:06.082Z,0.3
2017-01-17T07:25:19.553Z,0.31
2017-01-17T07:26:33.054Z,0.26
2017-01-17T07:27:46.584Z,0.16
2017-01-17T07:29:00.316Z,0.29
2017-01-17T07:30:13.771Z,0.24
2017-01-17T07:31:27.224Z,0.23
2017-01-17T07:32:41.121Z,0.23
2017-01-17T07:33:55.120Z,0.27
2017-01-17T07:35:09.331Z,0.23
2017-01-17T07:36:23.374Z,0.24
2017-01-17T07:37:36.952Z,0.26
2017-01-17T07:38:50.887Z,0.27
2017-01-17T07:40:04.332Z,0.27
2017-01-17T07:41:18.471Z,0.31
2017-01-17T07:42:31.953Z,0.3
2017-01-17T07:43:45.538Z,0.34
2017-01-17T07:44:59.035Z,0.31
2017-01-17T07:46:12.511Z,0.36
2017-01-17T07:47:36.560Z,0.37
2017-01-17T07:48:52.853Z,0.27
2017-01-17T07:50:06.468Z,0.31
2017-01-17T07:51:20.404Z,0.33
2017-01-17T07:52:34.625Z,0.27
2017-01-17T07:53:48.550Z,0.33
2017-01-17T07:55:02.117Z,0.34
2017-01-17T07:56:15.615Z,0.34
2017-01-17T07:57:41.838Z,0.39
2017-01-17T07:58:55.661Z,0.34
2017-01-17T08:00:09.094Z,0.3
2017-01-17T08:01:22.942Z,0.3
2017-01-17T08:02:36.412Z,0.33
2017-01-17T08:03:50.135Z,0.31
2017-01-17T08:05:03.873Z,0.34
2017-01-17T08:06:17.306Z,0.36
2017-01-17T08:07:30.842Z,0.37
2017-01-17T08:08:44.305Z,0.47
2017-01-17T08:09:57.977Z,0.48
2017-01-17T08:11:11.707Z,0.52
2017-01-17T08:12:25.327Z,0.47
2017-01-17T08:13:39.599Z,0.42
2017-01-17T08:14:53.886Z,0.51
2017-01-17T08:16:07.772Z,0.42
2017-01-17T08:17:22.398Z,0.56
2017-01-17T08:18:36.571Z,0.52
2017-01-17T08:19:52.842Z,0.51
2017-01-17T08:21:06.994Z,0.44
2017-01-17T08:22:21.032Z,0.48
2017-01-17T08:23:34.806Z,0.36
2017-01-17T08:24:48.432Z,0.47
2017-01-17T08:26:01.966Z,0.52
2017-01-17T08:27:15.804Z,0.55
2017-01-17T08:28:29.963Z,0.52
2017-01-17T08:29:43.740Z,0.56
2017-01-17T08:30:57.361Z,0.59
2017-01-17T08:32:10.838Z,0.49
2017-01-17T08:33:24.354Z,0.55
2017-01-17T08:34:37.790Z,0.52
2017-01-17T08:35:51.657Z,0.52
2017-01-17T08:37:05.120Z,0.63
2017-01-17T08:38:18.662Z,0.55
2017-01-17T08:39:32.233Z,0.52
2017-01-17T08:40:46.971Z,0.55
2017-01-17T08:42:00.753Z,0.52
2017-01-17T08:43:14.639Z,0.56
2017-01-17T08:44:28.127Z,0.59
2017-01-17T08:45:41.648Z,0.63
2017-01-17T08:46:55.248Z,0.64
2017-01-17T08:48:09.010Z,0.77
2017-01-17T08:49:22.566Z,0.73
2017-01-17T08:50:36.024Z,0.78
2017-01-17T08:51:49.655Z,0.73
2017-01-17T08:53:03.315Z,0.68
2017-01-17T08:54:17.553Z,0.73
2017-01-17T08:55:32.062Z,0.78
2017-01-17T08:56:45.709Z,0.71
2017-01-17T08:57:59.121Z,0.74
2017-01-17T08:59:12.606Z,0.59
2017-01-17T09:00:26.331Z,0.7
2017-01-17T09:01:39.772Z,0.78
2017-01-17T09:02:54.427Z,0.73
2017-01-17T09:04:07.919Z,0.68
2017-01-17T09:05:23.624Z,0.73
2017-01-17T09:06:39.144Z,0.74
2017-01-17T09:07:55.913Z,0.78
2017-01-17T09:09:15.167Z,0.88
2017-01-17T09:10:34.869Z,0.73
2017-01-17T09:11:55.774Z,0.96
2017-01-17T09:13:15.875Z,0.99
2017-01-17T09:14:32.171Z,1.13
2017-01-17T09:15:46.353Z,1.18
2017-01-17T09:17:03.279Z,1.18
2017-01-17T09:18:17.462Z,1.14
2017-01-17T09:19:31.651Z,1.24
2017-01-17T09:20:45.450Z,1.25
2017-01-17T09:22:02.031Z,1.21
2017-01-17T09:23:16.152Z,1.42
2017-01-17T09:24:30.318Z,1.39
2017-01-17T09:25:45.228Z,1.5
2017-01-17T09:27:02.613Z,1.46
2017-01-17T09:28:16.518Z,1.39
2017-01-17T09:29:31.425Z,1.38
2017-01-17T09:30:45.525Z,1.31
2017-01-17T09:32:01.459Z,1.18
2017-01-17T09:33:17.102Z,1.13
2017-01-17T09:34:37.266Z,1.13
2017-01-17T09:35:54.368Z,1.1
2017-01-17T09:37:09.624Z,1.1
2017-01-17T09:38:27.651Z,0.94
2017-01-17T09:39:41.803Z,0.95
2017-01-17T09:40:56.293Z,0.89
2017-01-17T09:42:12.588Z,0.91
2017-01-17T09:43:27.046Z,0.94
2017-01-17T09:44:42.844Z,1
2017-01-17T09:45:57.069Z,0.92
2017-01-17T09:47:11.489Z,0.89
2017-01-17T09:48:26.070Z,1.02
2017-01-17T09:49:39.744Z,0.91
2017-01-17T09:50:53.570Z,0.95
2017-01-17T09:52:08.499Z,0.94
2017-01-17T09:53:21.934Z,1
2017-01-17T09:54:36.706Z,1.02
2017-01-17T09:55:51.939Z,1.03
2017-01-17T09:57:05.836Z,1
2017-01-17T09:58:20.964Z,1.1
2017-01-17T09:59:35.826Z,1.09
2017-01-17T10:00:49.275Z,1.09
2017-01-17T10:02:02.721Z,1.1
2017-01-17T10:03:17.037Z,1.21
2017-01-17T10:04:30.871Z,1.12
2017-01-17T10:05:44.312Z,1.16
2017-01-17T10:06:57.742Z,1.14
2017-01-17T10:08:11.229Z,1.27
2017-01-17T10:09:24.933Z,1.22
2017-01-17T10:10:38.790Z,1.34
2017-01-17T10:11:52.260Z,1.42
2017-01-17T10:13:05.739Z,1.36
2017-01-17T10:14:19.830Z,1.48
2017-01-17T10:15:34.567Z,1.53
2017-01-17T10:16:49.156Z,1.49
2017-01-17T10:18:02.607Z,1.6
2017-01-17T10:19:17.311Z,1.66
2017-01-17T10:20:31.001Z,1.66
2017-01-17T10:21:44.786Z,1.66
2017-01-17T10:23:01.434Z,1.74
2017-01-17T10:24:17.185Z,1.75
2017-01-17T10:25:30.746Z,1.79
2017-01-17T10:26:44.522Z,1.78
2017-01-17T10:27:58.733Z,1.84
2017-01-17T10:29:12.733Z,1.86
2017-01-17T10:30:26.152Z,1.95
2017-01-17T10:31:40.051Z,2.07
2017-01-17T10:32:54.874Z,2.08
2017-01-17T10:34:09.068Z,2.04
2017-01-17T10:35:23.215Z,2.01
2017-01-17T10:36:37.088Z,1.92
2017-01-17T10:37:50.582Z,1.85
2017-01-17T10:39:04.202Z,1.78
2017-01-17T10:40:19.236Z,1.81
2017-01-17T10:41:33.106Z,1.89
2017-01-17T10:42:46.573Z,2.01
2017-01-17T10:44:00.026Z,2.04
2017-01-17T10:45:13.602Z,2.01
2017-01-17T10:46:27.343Z,2.03
2017-01-17T10:47:41.231Z,1.89
2017-01-17T10:48:54.724Z,1.92
2017-01-17T10:50:08.171Z,1.86
2017-01-17T10:51:22.192Z,1.85
2017-01-17T10:52:36.388Z,1.89
2017-01-17T10:53:49.801Z,1.92
2017-01-17T10:55:03.258Z,1.85
2017-01-17T10:56:16.816Z,1.84
2017-01-17T10:57:30.281Z,1.89
2017-01-17T10:58:44.075Z,1.84
2017-01-17T10:59:57.564Z,1.85
2017-01-17T11:01:11.242Z,1.79
2017-01-17T11:02:24.676Z,1.78
2017-01-17T11:03:38.162Z,1.82
2017-01-17T11:04:51.953Z,1.89
2017-01-17T11:06:05.538Z,1.89
2017-01-17T11:07:19.067Z,1.88
2017-01-17T11:08:32.505Z,1.78
2017-01-17T11:09:46.386Z,1.78
2017-01-17T11:11:00.429Z,1.74
2017-01-17T11:12:15.146Z,1.79
2017-01-17T11:13:29.029Z,1.78
2017-01-17T11:14:42.511Z,1.88
2017-01-17T11:15:55.964Z,1.85
2017-01-17T11:17:09.744Z,1.84
2017-01-17T11:18:23.624Z,1.84
2017-01-17T11:19:37.144Z,1.76
2017-01-17T11:20:50.605Z,1.74
2017-01-17T11:22:04.012Z,1.76
2017-01-17T11:23:18.982Z,1.76
2017-01-17T11:24:33.286Z,1.88
2017-01-17T11:25:46.804Z,1.84
2017-01-17T11:27:00.352Z,1.89
2017-01-17T11:28:15.021Z,1.89
2017-01-17T11:29:29.182Z,1.89
2017-01-17T11:30:42.821Z,1.89
2017-01-17T11:31:56.283Z,1.75
2017-01-17T11:33:09.782Z,1.84
2017-01-17T11:34:23.625Z,1.67
2017-01-17T11:35:37.329Z,1.81
2017-01-17T11:36:50.760Z,1.82
2017-01-17T11:38:04.615Z,1.78
2017-01-17T11:39:20.256Z,1.7
2017-01-17T11:40:33.737Z,1.76
2017-01-17T11:41:47.437Z,1.76
2017-01-17T11:43:01.288Z,1.66
2017-01-17T11:44:14.717Z,1.67
2017-01-17T11:45:28.252Z,1.66
2017-01-17T11:46:41.692Z,1.68
2017-01-17T11:47:55.450Z,1.64
2017-01-17T11:49:08.918Z,1.81
2017-01-17T11:50:22.521Z,1.81
2017-01-17T11:51:37.187Z,1.82
2017-01-17T11:52:50.665Z,1.79
2017-01-17T11:54:04.387Z,1.95
2017-01-17T11:55:17.830Z,1.82
2017-01-17T11:56:31.768Z,1.82
2017-01-17T11:57:45.275Z,1.81
2017-01-17T11:58:58.739Z,1.85
2017-01-17T12:00:12.466Z,1.76
2017-01-17T12:01:27.592Z,1.76
2017-01-17T12:02:41.080Z,1.78
2017-01-17T12:03:54.570Z,1.81
2017-01-17T12:05:08.884Z,1.84
2017-01-17T12:06:22.626Z,1.82
2017-01-17T12:07:36.084Z,1.74
2017-01-17T12:08:49.577Z,1.81
2017-01-17T12:10:03.097Z,1.88
2017-01-17T12:11:16.511Z,2.03
2017-01-17T12:12:30.311Z,2.12
2017-01-17T12:13:43.763Z,2.08
2017-01-17T12:14:57.211Z,2
2017-01-17T12:16:10.737Z,1.92
2017-01-17T12:17:24.257Z,1.84
2017-01-17T12:18:38.361Z,1.86
2017-01-17T12:19:51.815Z,1.85
2017-01-17T12:21:05.232Z,2.03
2017-01-17T12:22:19.032Z,1.85
2017-01-17T12:23:32.531Z,1.89
2017-01-17T12:24:46.639Z,1.86
2017-01-17T12:26:00.108Z,1.98
2017-01-17T12:27:13.584Z,2.07
2017-01-17T12:28:27.074Z,2.01
2017-01-17T12:29:40.752Z,2.03
2017-01-17T12:30:54.528Z,1.88
2017-01-17T12:32:08.410Z,1.89
2017-01-17T12:33:21.923Z,1.97
2017-01-17T12:34:35.365Z,2.07
2017-01-17T12:35:48.940Z,2.05
2017-01-17T12:37:02.688Z,2.07
2017-01-17T12:38:16.143Z,2.07
2017-01-17T12:39:29.636Z,2.16
2017-01-17T12:40:43.100Z,2.18
2017-01-17T12:41:56.749Z,2.22
2017-01-17T12:43:10.876Z,2.1
2017-01-17T12:44:24.433Z,2.19
2017-01-17T12:45:37.940Z,2.19
2017-01-17T12:46:51.420Z,2.12
2017-01-17T12:48:04.863Z,2.23
2017-01-17T12:49:18.628Z,2.3
2017-01-17T12:50:32.055Z,2.33
2017-01-17T12:51:45.958Z,2.34
2017-01-17T12:52:59.412Z,2.26
2017-01-17T12:54:12.881Z,2.3
2017-01-17T12:55:28.986Z,2.36
2017-01-17T12:56:42.440Z,2.33
2017-01-17T12:57:55.909Z,2.21
2017-01-17T12:59:09.392Z,2.36
2017-01-17T13:00:22.900Z,2.36
2017-01-17T13:01:36.651Z,2.3
2017-01-17T13:02:50.128Z,2.32
2017-01-17T13:04:04.410Z,2.34
2017-01-17T13:05:19.382Z,2.37
2017-01-17T13:06:32.824Z,2.33
2017-01-17T13:07:46.560Z,2.37
2017-01-17T13:09:00.022Z,2.36
2017-01-17T13:10:13.487Z,2.43
2017-01-17T13:11:27.416Z,2.37
2017-01-17T13:12:40.898Z,2.4
2017-01-17T13:13:54.628Z,2.5
2017-01-17T13:15:08.062Z,2.5
2017-01-17T13:16:21.602Z,2.54
2017-01-17T13:17:35.444Z,2.55
2017-01-17T13:18:48.927Z,2.52
2017-01-17T13:20:05.680Z,2.36
2017-01-17T13:21:19.317Z,2.51
2017-01-17T13:22:45.505Z,2.72
2017-01-17T13:23:59.004Z,2.69
2017-01-17T13:25:12.563Z,2.59
2017-01-17T13:26:26.378Z,2.55
2017-01-17T13:27:39.868Z,2.58
2017-01-17T13:28:53.811Z,2.52
2017-01-17T13:30:07.692Z,2.46
2017-01-17T13:31:22.400Z,2.52
2017-01-17T13:32:36.129Z,2.58
2017-01-17T13:33:49.624Z,2.4
2017-01-17T13:35:03.081Z,2.44
2017-01-17T13:36:16.995Z,2.52
2017-01-17T13:37:30.530Z,2.5
2017-01-17T13:38:44.304Z,2.54
2017-01-17T13:39:58.161Z,2.69
2017-01-17T13:41:12.054Z,2.62
2017-01-17T13:42:25.558Z,2.55
2017-01-17T13:43:39.033Z,2.54
2017-01-17T13:44:52.835Z,2.47
2017-01-17T13:46:06.490Z,2.39
2017-01-17T13:47:20.066Z,2.4
2017-01-17T13:48:33.534Z,2.39
2017-01-17T13:49:47.008Z,2.37
2017-01-17T13:51:00.782Z,2.44
2017-01-17T13:52:14.518Z,2.37
2017-01-17T13:53:28.025Z,2.34
2017-01-17T13:54:41.869Z,2.34
2017-01-17T13:55:55.409Z,2.34
2017-01-17T13:57:09.193Z,2.4
2017-01-17T13:58:22.722Z,2.36
2017-01-17T13:59:36.602Z,2.4
2017-01-17T14:00:50.130Z,2.34
2017-01-17T14:02:03.671Z,2.34
2017-01-17T14:03:17.451Z,2.41
2017-01-17T14:04:30.971Z,2.36
2017-01-17T14:05:44.408Z,2.37
2017-01-17T14:06:57.868Z,2.55
2017-01-17T14:08:11.382Z,2.34
2017-01-17T14:09:25.205Z,2.4
2017-01-17T14:10:38.669Z,2.57
2017-01-17T14:11:54.346Z,2.58
2017-01-17T14:13:07.874Z,2.58
2017-01-17T14:14:21.916Z,2.41
2017-01-17T14:15:36.154Z,2.54
2017-01-17T14:16:50.027Z,2.32
2017-01-17T14:18:03.454Z,2.3
2017-01-17T14:19:17.309Z,2.4
2017-01-17T14:20:30.754Z,2.36
2017-01-17T14:21:44.930Z,2.39
2017-01-17T14:22:58.377Z,2.36
2017-01-17T14:24:12.297Z,2.4
2017-01-17T14:25:26.091Z,2.52
2017-01-17T14:26:39.559Z,2.37
2017-01-17T14:27:53.334Z,2.43
2017-01-17T14:29:07.198Z,2.36
2017-01-17T14:30:20.714Z,2.37
2017-01-17T14:31:34.179Z,2.33
2017-01-17T14:32:47.675Z,2.28
2017-01-17T14:34:01.394Z,2.3
2017-01-17T14:35:14.922Z,2.32
2017-01-17T14:36:28.395Z,2.39
2017-01-17T14:37:41.839Z,2.39
2017-01-17T14:38:55.301Z,2.3
2017-01-17T14:40:09.088Z,2.26
2017-01-17T14:41:22.609Z,2.16
2017-01-17T14:42:36.053Z,2.26
2017-01-17T14:43:49.516Z,2.22
2017-01-17T14:45:02.999Z,2.21
2017-01-17T14:46:17.209Z,2.19
2017-01-17T14:47:30.698Z,2.19
2017-01-17T14:48:44.130Z,2.21
2017-01-17T14:49:57.563Z,2.15
2017-01-17T14:51:11.128Z,2.12
2017-01-17T14:52:24.869Z,2.07
2017-01-17T14:53:38.385Z,2.12
2017-01-17T14:54:51.907Z,2.1
2017-01-17T14:56:05.809Z,2.01
2017-01-17T14:57:19.773Z,2.15
2017-01-17T14:58:33.547Z,2.01
2017-01-17T14:59:47.118Z,1.97
2017-01-17T15:01:00.544Z,2.01
2017-01-17T15:02:14.113Z,2.14
2017-01-17T15:03:27.641Z,2.01
2017-01-17T15:04:41.605Z,1.95
2017-01-17T15:05:55.679Z,2.05
2017-01-17T15:07:09.220Z,1.86
2017-01-17T15:08:22.670Z,1.89
2017-01-17T15:09:36.159Z,1.85
2017-01-17T15:10:49.900Z,1.84
2017-01-17T15:12:03.358Z,1.85
2017-01-17T15:13:16.909Z,1.86
2017-01-17T15:14:30.411Z,1.88
2017-01-17T15:15:43.919Z,1.76
2017-01-17T15:16:57.759Z,1.84
2017-01-17T15:18:11.238Z,1.78
2017-01-17T15:19:24.642Z,1.79
2017-01-17T15:20:38.076Z,1.78
2017-01-17T15:21:51.606Z,1.7
2017-01-17T15:23:05.414Z,1.81
2017-01-17T15:24:18.899Z,1.81
2017-01-17T15:25:32.420Z,1.75
2017-01-17T15:26:46.046Z,1.76
2017-01-17T15:28:01.722Z,1.75
2017-01-17T15:29:15.719Z,1.75
2017-01-17T15:30:29.186Z,1.79
2017-01-17T15:31:42.619Z,1.64
2017-01-17T15:32:56.059Z,1.61
2017-01-17T15:34:09.634Z,1.66
2017-01-17T15:35:23.465Z,1.64
2017-01-17T15:36:36.897Z,1.66
2017-01-17T15:37:50.432Z,1.64
2017-01-17T15:39:04.031Z,1.61
2017-01-17T15:40:17.632Z,1.53
2017-01-17T15:41:31.837Z,1.53
2017-01-17T15:42:45.341Z,1.52
2017-01-17T15:43:58.929Z,1.56
2017-01-17T15:45:12.616Z,1.61
2017-01-17T15:46:26.323Z,1.5
2017-01-17T15:47:40.096Z,1.52
2017-01-17T15:48:53.572Z,1.5
2017-01-17T15:50:07.215Z,1.38
2017-01-17T15:51:20.802Z,1.43
2017-01-17T15:52:35.195Z,1.38
2017-01-17T15:53:49.162Z,1.34
2017-01-17T15:55:05.799Z,1.4
2017-01-17T15:56:22.260Z,1.36
2017-01-17T15:57:35.718Z,1.34
2017-01-17T15:58:49.220Z,1.28
2017-01-17T16:00:04.469Z,1.32
2017-01-17T16:01:17.965Z,1.34
2017-01-17T16:02:31.498Z,1.27
2017-01-17T16:03:45.039Z,1.3
2017-01-17T16:04:59.521Z,1.34
2017-01-17T16:06:13.287Z,1.38
2017-01-17T16:07:26.926Z,1.34
2017-01-17T16:08:40.931Z,1.27
2017-01-17T16:09:54.622Z,1.22
2017-01-17T16:11:09.795Z,1.2
2017-01-17T16:12:23.568Z,1.21
2017-01-17T16:13:37.258Z,1.18
2017-01-17T16:14:50.846Z,1.13
2017-01-17T16:16:04.405Z,1.18
2017-01-17T16:17:18.034Z,1.14